sensor_id;sensor_type;location;lat;lon;timestamp;pressure;altitude;pressure_sealevel;temperature
81657;BMP280;71067;51.482;-0.580;2024-03-02T00:00:00;98915.84;;;5.00
81657;BMP280;71067;51.482;-0.580;2024-03-02T00:02:25;98917.09;;;4.96
81657;BMP280;71067;51.482;-0.580;2024-03-02T00:04:51;98908.00;;;4.93
81657;BMP280;71067;51.482;-0.580;2024-03-02T00:07:16;98913.41;;;4.98
81657;BMP280;71067;51.482;-0.580;2024-03-02T00:09:42;98918.41;;;5.00
81657;BMP280;71067;51.482;-0.580;2024-03-02T00:12:08;98901.41;;;4.99
81657;BMP280;71067;51.482;-0.580;2024-03-02T00:14:33;98911.03;;;5.05
81657;BMP280;71067;51.482;-0.580;2024-03-02T00:16:58;98911.94;;;5.12
81657;BMP280;71067;51.482;-0.580;2024-03-02T00:19:24;98899.28;;;5.10
81657;BMP280;71067;51.482;-0.580;2024-03-02T00:21:50;98914.81;;;5.17
81657;BMP280;71067;51.482;-0.580;2024-03-02T00:24:21;98910.66;;;5.16
81657;BMP280;71067;51.482;-0.580;2024-03-02T00:26:47;98925.00;;;5.25
81657;BMP280;71067;51.482;-0.580;2024-03-02T00:29:16;98924.19;;;5.24
81657;BMP280;71067;51.482;-0.580;2024-03-02T00:31:44;98927.41;;;5.26
81657;BMP280;71067;51.482;-0.580;2024-03-02T00:34:12;98929.50;;;5.31
81657;BMP280;71067;51.482;-0.580;2024-03-02T00:36:38;98948.06;;;5.33
81657;BMP280;71067;51.482;-0.580;2024-03-02T00:39:04;98943.03;;;5.39
81657;BMP280;71067;51.482;-0.580;2024-03-02T00:41:33;98924.81;;;5.34
81657;BMP280;71067;51.482;-0.580;2024-03-02T00:44:15;98933.31;;;5.35
81657;BMP280;71067;51.482;-0.580;2024-03-02T00:46:42;98892.59;;;5.32
81657;BMP280;71067;51.482;-0.580;2024-03-02T00:49:21;98899.38;;;5.25
81657;BMP280;71067;51.482;-0.580;2024-03-02T00:51:48;98911.34;;;5.32
81657;BMP280;71067;51.482;-0.580;2024-03-02T00:54:14;98899.72;;;5.22
81657;BMP280;71067;51.482;-0.580;2024-03-02T00:56:41;98907.53;;;5.28
81657;BMP280;71067;51.482;-0.580;2024-03-02T00:59:07;98882.47;;;5.16
81657;BMP280;71067;51.482;-0.580;2024-03-02T01:01:34;98900.97;;;5.26
81657;BMP280;71067;51.482;-0.580;2024-03-02T01:03:59;98906.75;;;5.28
81657;BMP280;71067;51.482;-0.580;2024-03-02T01:06:24;98900.00;;;5.27
81657;BMP280;71067;51.482;-0.580;2024-03-02T01:08:50;98896.47;;;5.28
81657;BMP280;71067;51.482;-0.580;2024-03-02T01:11:16;98902.56;;;5.27
81657;BMP280;71067;51.482;-0.580;2024-03-02T01:13:41;98904.16;;;5.28
81657;BMP280;71067;51.482;-0.580;2024-03-02T01:16:07;98915.88;;;5.30
81657;BMP280;71067;51.482;-0.580;2024-03-02T01:18:32;98906.41;;;5.31
81657;BMP280;71067;51.482;-0.580;2024-03-02T01:20:57;98898.72;;;5.31
81657;BMP280;71067;51.482;-0.580;2024-03-02T01:23:23;98909.28;;;5.36
81657;BMP280;71067;51.482;-0.580;2024-03-02T01:25:50;98906.53;;;5.37
81657;BMP280;71067;51.482;-0.580;2024-03-02T01:28:16;98905.72;;;5.37
81657;BMP280;71067;51.482;-0.580;2024-03-02T01:30:41;98895.13;;;5.40
81657;BMP280;71067;51.482;-0.580;2024-03-02T01:33:06;98895.13;;;5.40
81657;BMP280;71067;51.482;-0.580;2024-03-02T01:35:32;98884.84;;;5.40
81657;BMP280;71067;51.482;-0.580;2024-03-02T01:37:58;98885.06;;;5.38
81657;BMP280;71067;51.482;-0.580;2024-03-02T01:40:24;98900.09;;;5.42
81657;BMP280;71067;51.482;-0.580;2024-03-02T01:42:53;98881.88;;;5.36
81657;BMP280;71067;51.482;-0.580;2024-03-02T01:45:23;98875.13;;;5.35
81657;BMP280;71067;51.482;-0.580;2024-03-02T01:47:49;98867.94;;;5.31
81657;BMP280;71067;51.482;-0.580;2024-03-02T01:50:14;98882.91;;;5.42
81657;BMP280;71067;51.482;-0.580;2024-03-02T01:52:40;98875.94;;;5.36
81657;BMP280;71067;51.482;-0.580;2024-03-02T01:55:05;98866.19;;;5.31
81657;BMP280;71067;51.482;-0.580;2024-03-02T01:57:31;98879.56;;;5.42
81657;BMP280;71067;51.482;-0.580;2024-03-02T01:59:57;98875.22;;;5.42
81657;BMP280;71067;51.482;-0.580;2024-03-02T02:02:23;98855.13;;;5.31
81657;BMP280;71067;51.482;-0.580;2024-03-02T02:04:48;98869.38;;;5.33
81657;BMP280;71067;51.482;-0.580;2024-03-02T02:07:13;98872.25;;;5.38
81657;BMP280;71067;51.482;-0.580;2024-03-02T02:09:41;98877.38;;;5.38
81657;BMP280;71067;51.482;-0.580;2024-03-02T02:12:06;98885.66;;;5.40
81657;BMP280;71067;51.482;-0.580;2024-03-02T02:14:32;98877.78;;;5.42
81657;BMP280;71067;51.482;-0.580;2024-03-02T02:16:58;98858.13;;;5.34
81657;BMP280;71067;51.482;-0.580;2024-03-02T02:19:24;98859.41;;;5.38
81657;BMP280;71067;51.482;-0.580;2024-03-02T02:21:49;98857.63;;;5.39
81657;BMP280;71067;51.482;-0.580;2024-03-02T02:24:14;98844.63;;;5.40
81657;BMP280;71067;51.482;-0.580;2024-03-02T02:26:39;98825.63;;;5.27
81657;BMP280;71067;51.482;-0.580;2024-03-02T02:29:05;98828.16;;;5.35
81657;BMP280;71067;51.482;-0.580;2024-03-02T02:31:40;98838.53;;;5.42
81657;BMP280;71067;51.482;-0.580;2024-03-02T02:34:06;98838.69;;;5.40
81657;BMP280;71067;51.482;-0.580;2024-03-02T02:36:34;98814.41;;;5.28
81657;BMP280;71067;51.482;-0.580;2024-03-02T02:39:02;98836.13;;;5.40
81657;BMP280;71067;51.482;-0.580;2024-03-02T02:41:32;98843.34;;;5.45
81657;BMP280;71067;51.482;-0.580;2024-03-02T02:43:57;98836.34;;;5.38
81657;BMP280;71067;51.482;-0.580;2024-03-02T02:46:23;98825.72;;;5.42
81657;BMP280;71067;51.482;-0.580;2024-03-02T02:48:48;98820.31;;;5.36
81657;BMP280;71067;51.482;-0.580;2024-03-02T02:51:13;98812.44;;;5.38
81657;BMP280;71067;51.482;-0.580;2024-03-02T02:53:38;98828.09;;;5.43
81657;BMP280;71067;51.482;-0.580;2024-03-02T02:56:07;98826.97;;;5.46
81657;BMP280;71067;51.482;-0.580;2024-03-02T02:58:32;98820.59;;;5.42
81657;BMP280;71067;51.482;-0.580;2024-03-02T03:00:57;98825.22;;;5.46
81657;BMP280;71067;51.482;-0.580;2024-03-02T03:03:22;98811.44;;;5.47
81657;BMP280;71067;51.482;-0.580;2024-03-02T03:05:48;98808.69;;;5.49
81657;BMP280;71067;51.482;-0.580;2024-03-02T03:08:13;98774.31;;;5.35
81657;BMP280;71067;51.482;-0.580;2024-03-02T03:10:39;98793.91;;;5.51
81657;BMP280;71067;51.482;-0.580;2024-03-02T03:13:05;98791.53;;;5.49
81657;BMP280;71067;51.482;-0.580;2024-03-02T03:15:34;98774.88;;;5.45
81657;BMP280;71067;51.482;-0.580;2024-03-02T03:17:59;98789.22;;;5.54
81657;BMP280;71067;51.482;-0.580;2024-03-02T03:20:25;98774.19;;;5.51
81657;BMP280;71067;51.482;-0.580;2024-03-02T03:22:50;98774.53;;;5.48
81657;BMP280;71067;51.482;-0.580;2024-03-02T03:25:15;98754.28;;;5.38
81657;BMP280;71067;51.482;-0.580;2024-03-02T03:27:40;98763.13;;;5.51
81657;BMP280;71067;51.482;-0.580;2024-03-02T03:30:07;98755.16;;;5.46
81657;BMP280;71067;51.482;-0.580;2024-03-02T03:32:32;98757.38;;;5.49
81657;BMP280;71067;51.482;-0.580;2024-03-02T03:34:57;98750.19;;;5.44
81657;BMP280;71067;51.482;-0.580;2024-03-02T03:37:23;98751.97;;;5.44
81657;BMP280;71067;51.482;-0.580;2024-03-02T03:39:49;98753.66;;;5.36
81657;BMP280;71067;51.482;-0.580;2024-03-02T03:42:14;98753.47;;;5.38
81657;BMP280;71067;51.482;-0.580;2024-03-02T03:44:39;98748.50;;;5.36
81657;BMP280;71067;51.482;-0.580;2024-03-02T03:47:06;98747.25;;;5.32
81657;BMP280;71067;51.482;-0.580;2024-03-02T03:49:32;98731.22;;;5.30
81657;BMP280;71067;51.482;-0.580;2024-03-02T03:51:57;98731.97;;;5.39
81657;BMP280;71067;51.482;-0.580;2024-03-02T03:54:22;98735.78;;;5.43
81657;BMP280;71067;51.482;-0.580;2024-03-02T03:56:48;98728.34;;;5.48
81657;BMP280;71067;51.482;-0.580;2024-03-02T03:59:13;98702.69;;;5.33
81657;BMP280;71067;51.482;-0.580;2024-03-02T04:01:38;98726.25;;;5.52
81657;BMP280;71067;51.482;-0.580;2024-03-02T04:04:04;98724.91;;;5.56
81657;BMP280;71067;51.482;-0.580;2024-03-02T04:06:29;98712.25;;;5.54
81657;BMP280;71067;51.482;-0.580;2024-03-02T04:08:55;98701.47;;;5.59
81657;BMP280;71067;51.482;-0.580;2024-03-02T04:11:20;98712.81;;;5.64
81657;BMP280;71067;51.482;-0.580;2024-03-02T04:13:45;98699.66;;;5.67
81657;BMP280;71067;51.482;-0.580;2024-03-02T04:16:11;98705.03;;;5.72
81657;BMP280;71067;51.482;-0.580;2024-03-02T04:18:37;98699.22;;;5.78
81657;BMP280;71067;51.482;-0.580;2024-03-02T04:21:03;98697.28;;;5.80
81657;BMP280;71067;51.482;-0.580;2024-03-02T04:23:28;98691.97;;;5.82
81657;BMP280;71067;51.482;-0.580;2024-03-02T04:25:53;98673.09;;;5.75
81657;BMP280;71067;51.482;-0.580;2024-03-02T04:28:19;98695.22;;;5.90
81657;BMP280;71067;51.482;-0.580;2024-03-02T04:30:44;98691.19;;;5.96
81657;BMP280;71067;51.482;-0.580;2024-03-02T04:33:09;98696.75;;;5.99
81657;BMP280;71067;51.482;-0.580;2024-03-02T04:35:38;98696.75;;;5.99
81657;BMP280;71067;51.482;-0.580;2024-03-02T04:38:03;98690.47;;;6.02
81657;BMP280;71067;51.482;-0.580;2024-03-02T04:40:29;98704.53;;;6.06
81657;BMP280;71067;51.482;-0.580;2024-03-02T04:42:54;98711.06;;;6.08
81657;BMP280;71067;51.482;-0.580;2024-03-02T04:45:19;98696.81;;;6.06
81657;BMP280;71067;51.482;-0.580;2024-03-02T04:47:45;98694.94;;;6.14
81657;BMP280;71067;51.482;-0.580;2024-03-02T04:50:10;98685.41;;;6.08
81657;BMP280;71067;51.482;-0.580;2024-03-02T04:52:36;98690.25;;;6.18
81657;BMP280;71067;51.482;-0.580;2024-03-02T04:55:01;98706.91;;;6.22
81657;BMP280;71067;51.482;-0.580;2024-03-02T04:57:50;98699.44;;;6.27
81657;BMP280;71067;51.482;-0.580;2024-03-02T05:00:16;98691.97;;;6.26
81657;BMP280;71067;51.482;-0.580;2024-03-02T05:02:42;98693.16;;;6.30
81657;BMP280;71067;51.482;-0.580;2024-03-02T05:05:07;98684.31;;;6.32
81657;BMP280;71067;51.482;-0.580;2024-03-02T05:07:33;98679.97;;;6.33
81657;BMP280;71067;51.482;-0.580;2024-03-02T05:09:58;98688.91;;;6.37
81657;BMP280;71067;51.482;-0.580;2024-03-02T05:12:24;98676.69;;;6.39
81657;BMP280;71067;51.482;-0.580;2024-03-02T05:15:07;98682.41;;;6.41
81657;BMP280;71067;51.482;-0.580;2024-03-02T05:17:33;98682.22;;;6.42
81657;BMP280;71067;51.482;-0.580;2024-03-02T05:19:58;98682.22;;;6.42
81657;BMP280;71067;51.482;-0.580;2024-03-02T05:22:24;98648.53;;;6.31
81657;BMP280;71067;51.482;-0.580;2024-03-02T05:24:49;98678.16;;;6.48
81657;BMP280;71067;51.482;-0.580;2024-03-02T05:27:14;98677.63;;;6.52
81657;BMP280;71067;51.482;-0.580;2024-03-02T05:29:40;98669.28;;;6.50
81657;BMP280;71067;51.482;-0.580;2024-03-02T05:32:05;98658.84;;;6.52
81657;BMP280;71067;51.482;-0.580;2024-03-02T05:34:31;98658.31;;;6.42
81657;BMP280;71067;51.482;-0.580;2024-03-02T05:36:58;98640.75;;;6.39
81657;BMP280;71067;51.482;-0.580;2024-03-02T05:39:23;98614.63;;;6.21
81657;BMP280;71067;51.482;-0.580;2024-03-02T05:41:48;98661.66;;;6.57
81657;BMP280;71067;51.482;-0.580;2024-03-02T05:44:13;98670.31;;;6.56
81657;BMP280;71067;51.482;-0.580;2024-03-02T05:46:40;98663.84;;;6.60
81657;BMP280;71067;51.482;-0.580;2024-03-02T05:49:06;98653.56;;;6.60
81657;BMP280;71067;51.482;-0.580;2024-03-02T05:51:34;98654.00;;;6.63
81657;BMP280;71067;51.482;-0.580;2024-03-02T05:54:00;98655.22;;;6.67
81657;BMP280;71067;51.482;-0.580;2024-03-02T05:56:25;98667.09;;;6.68
81657;BMP280;71067;51.482;-0.580;2024-03-02T05:58:50;98657.97;;;6.66
81657;BMP280;71067;51.482;-0.580;2024-03-02T06:01:34;98626.31;;;6.44
81657;BMP280;71067;51.482;-0.580;2024-03-02T06:04:00;98668.84;;;6.68
81657;BMP280;71067;51.482;-0.580;2024-03-02T06:06:25;98668.84;;;6.68
81657;BMP280;71067;51.482;-0.580;2024-03-02T06:08:51;98657.78;;;6.67
81657;BMP280;71067;51.482;-0.580;2024-03-02T06:11:17;98656.41;;;6.65
81657;BMP280;71067;51.482;-0.580;2024-03-02T06:13:42;98643.66;;;6.57
81657;BMP280;71067;51.482;-0.580;2024-03-02T06:16:08;98659.22;;;6.70
81657;BMP280;71067;51.482;-0.580;2024-03-02T06:18:34;98661.78;;;6.70
81657;BMP280;71067;51.482;-0.580;2024-03-02T06:20:59;98662.94;;;6.67
81657;BMP280;71067;51.482;-0.580;2024-03-02T06:23:26;98650.81;;;6.61
81657;BMP280;71067;51.482;-0.580;2024-03-02T06:25:51;98662.13;;;6.67
81657;BMP280;71067;51.482;-0.580;2024-03-02T06:28:16;98640.88;;;6.52
81657;BMP280;71067;51.482;-0.580;2024-03-02T06:30:42;98654.38;;;6.60
81657;BMP280;71067;51.482;-0.580;2024-03-02T06:33:08;98657.16;;;6.65
81657;BMP280;71067;51.482;-0.580;2024-03-02T06:35:33;98639.06;;;6.52
81657;BMP280;71067;51.482;-0.580;2024-03-02T06:38:00;98655.00;;;6.62
81657;BMP280;71067;51.482;-0.580;2024-03-02T06:40:25;98659.34;;;6.62
81657;BMP280;71067;51.482;-0.580;2024-03-02T06:42:50;98631.84;;;6.41
81657;BMP280;71067;51.482;-0.580;2024-03-02T06:45:16;98639.63;;;6.48
81657;BMP280;71067;51.482;-0.580;2024-03-02T06:47:41;98657.94;;;6.59
81657;BMP280;71067;51.482;-0.580;2024-03-02T06:50:07;98675.94;;;6.66
81657;BMP280;71067;51.482;-0.580;2024-03-02T06:52:32;98674.91;;;6.60
81657;BMP280;71067;51.482;-0.580;2024-03-02T06:54:58;98674.13;;;6.60
81657;BMP280;71067;51.482;-0.580;2024-03-02T06:57:23;98666.16;;;6.55
81657;BMP280;71067;51.482;-0.580;2024-03-02T06:59:50;98652.94;;;6.37
81657;BMP280;71067;51.482;-0.580;2024-03-02T07:02:16;98671.69;;;6.52
81657;BMP280;71067;51.482;-0.580;2024-03-02T07:04:42;98691.84;;;6.55
81657;BMP280;71067;51.482;-0.580;2024-03-02T07:07:07;98678.38;;;6.53
81657;BMP280;71067;51.482;-0.580;2024-03-02T07:09:32;98672.41;;;6.46
81657;BMP280;71067;51.482;-0.580;2024-03-02T07:11:58;98613.22;;;6.18
81657;BMP280;71067;51.482;-0.580;2024-03-02T07:14:23;98680.19;;;6.52
81657;BMP280;71067;51.482;-0.580;2024-03-02T07:17:08;98674.34;;;6.44
81657;BMP280;71067;51.482;-0.580;2024-03-02T07:19:34;98684.63;;;6.44
81657;BMP280;71067;51.482;-0.580;2024-03-02T07:22:00;98670.31;;;6.35
81657;BMP280;71067;51.482;-0.580;2024-03-02T07:24:25;98676.84;;;6.37
81657;BMP280;71067;51.482;-0.580;2024-03-02T07:26:51;98686.75;;;6.40
81657;BMP280;71067;51.482;-0.580;2024-03-02T07:29:17;98661.72;;;6.28
81657;BMP280;71067;51.482;-0.580;2024-03-02T07:31:42;98690.53;;;6.44
81657;BMP280;71067;51.482;-0.580;2024-03-02T07:34:07;98685.78;;;6.41
81657;BMP280;71067;51.482;-0.580;2024-03-02T07:36:32;98701.97;;;6.42
81657;BMP280;71067;51.482;-0.580;2024-03-02T07:38:58;98682.28;;;6.28
81657;BMP280;71067;51.482;-0.580;2024-03-02T07:41:23;98696.34;;;6.32
81657;BMP280;71067;51.482;-0.580;2024-03-02T07:43:48;98683.97;;;6.21
81657;BMP280;71067;51.482;-0.580;2024-03-02T07:46:14;98701.66;;;6.30
81657;BMP280;71067;51.482;-0.580;2024-03-02T07:48:39;98703.78;;;6.27
81657;BMP280;71067;51.482;-0.580;2024-03-02T07:51:05;98705.16;;;6.23
81657;BMP280;71067;51.482;-0.580;2024-03-02T07:53:30;98703.72;;;6.20
81657;BMP280;71067;51.482;-0.580;2024-03-02T07:55:56;98696.72;;;6.14
81657;BMP280;71067;51.482;-0.580;2024-03-02T07:58:26;98705.84;;;6.17
81657;BMP280;71067;51.482;-0.580;2024-03-02T08:00:52;98720.22;;;6.26
81657;BMP280;71067;51.482;-0.580;2024-03-02T08:03:17;98726.50;;;6.23
81657;BMP280;71067;51.482;-0.580;2024-03-02T08:05:44;98693.56;;;5.97
81657;BMP280;71067;51.482;-0.580;2024-03-02T08:08:09;98737.16;;;6.27
81657;BMP280;71067;51.482;-0.580;2024-03-02T08:10:34;98734.00;;;6.25
81657;BMP280;71067;51.482;-0.580;2024-03-02T08:13:01;98721.25;;;6.17
81657;BMP280;71067;51.482;-0.580;2024-03-02T08:15:26;98728.94;;;6.17
81657;BMP280;71067;51.482;-0.580;2024-03-02T08:17:52;98734.88;;;6.17
81657;BMP280;71067;51.482;-0.580;2024-03-02T08:20:17;98744.63;;;6.22
81657;BMP280;71067;51.482;-0.580;2024-03-02T08:22:43;98726.72;;;6.13
81657;BMP280;71067;51.482;-0.580;2024-03-02T08:25:08;98740.91;;;6.24
81657;BMP280;71067;51.482;-0.580;2024-03-02T08:27:35;98745.25;;;6.24
81657;BMP280;71067;51.482;-0.580;2024-03-02T08:30:00;98750.00;;;6.27
81657;BMP280;71067;51.482;-0.580;2024-03-02T08:32:25;98753.28;;;6.21
81657;BMP280;71067;51.482;-0.580;2024-03-02T08:34:51;98758.88;;;6.24
81657;BMP280;71067;51.482;-0.580;2024-03-02T08:37:16;98762.59;;;6.22
81657;BMP280;71067;51.482;-0.580;2024-03-02T08:39:41;98769.97;;;6.25
81657;BMP280;71067;51.482;-0.580;2024-03-02T08:42:07;98765.69;;;6.17
81657;BMP280;71067;51.482;-0.580;2024-03-02T08:44:32;98771.91;;;6.23
81657;BMP280;71067;51.482;-0.580;2024-03-02T08:46:58;98778.19;;;6.20
81657;BMP280;71067;51.482;-0.580;2024-03-02T08:49:24;98779.97;;;6.20
81657;BMP280;71067;51.482;-0.580;2024-03-02T08:51:49;98773.16;;;6.12
81657;BMP280;71067;51.482;-0.580;2024-03-02T08:54:21;98778.28;;;6.12
81657;BMP280;71067;51.482;-0.580;2024-03-02T08:56:47;98785.78;;;6.13
81657;BMP280;71067;51.482;-0.580;2024-03-02T08:59:12;98781.03;;;6.10
81657;BMP280;71067;51.482;-0.580;2024-03-02T09:01:37;98782.63;;;6.11
81657;BMP280;71067;51.482;-0.580;2024-03-02T09:04:06;98784.13;;;6.06
81657;BMP280;71067;51.482;-0.580;2024-03-02T09:06:34;98795.81;;;6.08
81657;BMP280;71067;51.482;-0.580;2024-03-02T09:08:59;98786.41;;;6.01
81657;BMP280;71067;51.482;-0.580;2024-03-02T09:11:24;98802.72;;;6.08
81657;BMP280;71067;51.482;-0.580;2024-03-02T09:13:50;98795.81;;;6.08
81657;BMP280;71067;51.482;-0.580;2024-03-02T09:16:15;98807.41;;;6.04
81657;BMP280;71067;51.482;-0.580;2024-03-02T09:18:41;98800.31;;;6.06
81657;BMP280;71067;51.482;-0.580;2024-03-02T09:21:06;98804.47;;;6.07
81657;BMP280;71067;51.482;-0.580;2024-03-02T09:23:32;98810.25;;;6.09
81657;BMP280;71067;51.482;-0.580;2024-03-02T09:25:58;98815.72;;;6.06
81657;BMP280;71067;51.482;-0.580;2024-03-02T09:28:23;98822.53;;;6.14
81657;BMP280;71067;51.482;-0.580;2024-03-02T09:30:51;98769.94;;;5.81
81657;BMP280;71067;51.482;-0.580;2024-03-02T09:33:16;98828.47;;;6.14
81657;BMP280;71067;51.482;-0.580;2024-03-02T09:35:42;98829.28;;;6.15
81657;BMP280;71067;51.482;-0.580;2024-03-02T09:38:07;98832.47;;;6.17
81657;BMP280;71067;51.482;-0.580;2024-03-02T09:40:33;98835.31;;;6.22
81657;BMP280;71067;51.482;-0.580;2024-03-02T09:42:58;98836.53;;;6.26
81657;BMP280;71067;51.482;-0.580;2024-03-02T09:45:24;98833.22;;;6.26
81657;BMP280;71067;51.482;-0.580;2024-03-02T09:47:50;98790.72;;;6.00
81657;BMP280;71067;51.482;-0.580;2024-03-02T09:50:16;98840.50;;;6.29
81657;BMP280;71067;51.482;-0.580;2024-03-02T09:52:48;98842.13;;;6.30
81657;BMP280;71067;51.482;-0.580;2024-03-02T09:55:13;98848.22;;;6.29
81657;BMP280;71067;51.482;-0.580;2024-03-02T09:57:40;98841.88;;;6.25
81657;BMP280;71067;51.482;-0.580;2024-03-02T10:00:08;98851.94;;;6.26
81657;BMP280;71067;51.482;-0.580;2024-03-02T10:02:39;98853.09;;;6.24
81657;BMP280;71067;51.482;-0.580;2024-03-02T10:05:06;98853.00;;;6.17
81657;BMP280;71067;51.482;-0.580;2024-03-02T10:07:31;98852.69;;;6.20
81657;BMP280;71067;51.482;-0.580;2024-03-02T10:09:57;98858.16;;;6.17
81657;BMP280;71067;51.482;-0.580;2024-03-02T10:12:22;98827.28;;;6.02
81657;BMP280;71067;51.482;-0.580;2024-03-02T10:14:47;98844.03;;;6.13
81657;BMP280;71067;51.482;-0.580;2024-03-02T10:17:17;98855.69;;;6.24
81657;BMP280;71067;51.482;-0.580;2024-03-02T10:19:42;98866.28;;;6.21
81657;BMP280;71067;51.482;-0.580;2024-03-02T10:22:08;98870.47;;;6.22
81657;BMP280;71067;51.482;-0.580;2024-03-02T10:24:43;98880.75;;;6.22
81657;BMP280;71067;51.482;-0.580;2024-03-02T10:27:23;98893.25;;;6.25
81657;BMP280;71067;51.482;-0.580;2024-03-02T10:29:50;98882.06;;;6.18
81657;BMP280;71067;51.482;-0.580;2024-03-02T10:32:16;98872.22;;;6.06
81657;BMP280;71067;51.482;-0.580;2024-03-02T10:34:43;98870.88;;;6.10
81657;BMP280;71067;51.482;-0.580;2024-03-02T10:37:11;98884.97;;;6.14
81657;BMP280;71067;51.482;-0.580;2024-03-02T10:39:37;98875.75;;;6.05
81657;BMP280;71067;51.482;-0.580;2024-03-02T10:42:05;98894.91;;;6.18
81657;BMP280;71067;51.482;-0.580;2024-03-02T10:44:31;98898.44;;;6.17
81657;BMP280;71067;51.482;-0.580;2024-03-02T10:47:00;98891.00;;;6.22
81657;BMP280;71067;51.482;-0.580;2024-03-02T10:49:26;98884.25;;;6.21
81657;BMP280;71067;51.482;-0.580;2024-03-02T10:51:53;98885.88;;;6.22
81657;BMP280;71067;51.482;-0.580;2024-03-02T10:54:18;98882.97;;;6.25
81657;BMP280;71067;51.482;-0.580;2024-03-02T10:56:44;98877.22;;;6.23
81657;BMP280;71067;51.482;-0.580;2024-03-02T10:59:27;98893.16;;;6.33
81657;BMP280;71067;51.482;-0.580;2024-03-02T11:01:56;98898.84;;;6.43
81657;BMP280;71067;51.482;-0.580;2024-03-02T11:04:24;98887.94;;;6.41
81657;BMP280;71067;51.482;-0.580;2024-03-02T11:06:50;98908.94;;;6.59
81657;BMP280;71067;51.482;-0.580;2024-03-02T11:09:20;98902.22;;;6.58
81657;BMP280;71067;51.482;-0.580;2024-03-02T11:11:52;98902.47;;;6.63
81657;BMP280;71067;51.482;-0.580;2024-03-02T11:14:24;98887.94;;;6.55
81657;BMP280;71067;51.482;-0.580;2024-03-02T11:16:50;98910.28;;;6.69
81657;BMP280;71067;51.482;-0.580;2024-03-02T11:19:16;98906.22;;;6.75
81657;BMP280;71067;51.482;-0.580;2024-03-02T11:21:42;98877.66;;;6.55
81657;BMP280;71067;51.482;-0.580;2024-03-02T11:26:50;98910.53;;;6.89
81657;BMP280;71067;51.482;-0.580;2024-03-02T11:32:21;98918.06;;;7.05
81657;BMP280;71067;51.482;-0.580;2024-03-02T11:34:48;98913.72;;;7.06
81657;BMP280;71067;51.482;-0.580;2024-03-02T11:37:19;98924.19;;;7.04
81657;BMP280;71067;51.482;-0.580;2024-03-02T11:39:46;98926.94;;;7.03
81657;BMP280;71067;51.482;-0.580;2024-03-02T11:42:12;98930.09;;;7.05
81657;BMP280;71067;51.482;-0.580;2024-03-02T11:44:39;98921.00;;;7.02
81657;BMP280;71067;51.482;-0.580;2024-03-02T11:47:08;98921.34;;;6.99
81657;BMP280;71067;51.482;-0.580;2024-03-02T11:52:08;98924.47;;;7.09
81657;BMP280;71067;51.482;-0.580;2024-03-02T11:54:34;98927.66;;;7.11
81657;BMP280;71067;51.482;-0.580;2024-03-02T11:57:02;98928.59;;;7.10
81657;BMP280;71067;51.482;-0.580;2024-03-02T11:59:29;98914.44;;;7.14
81657;BMP280;71067;51.482;-0.580;2024-03-02T12:01:55;98926.81;;;7.25
81657;BMP280;71067;51.482;-0.580;2024-03-02T12:04:21;98931.00;;;7.26
81657;BMP280;71067;51.482;-0.580;2024-03-02T12:06:54;98921.41;;;7.20
81657;BMP280;71067;51.482;-0.580;2024-03-02T12:09:20;98926.44;;;7.28
81657;BMP280;71067;51.482;-0.580;2024-03-02T12:11:46;98920.09;;;7.24
81657;BMP280;71067;51.482;-0.580;2024-03-02T12:14:12;98937.78;;;7.34
81657;BMP280;71067;51.482;-0.580;2024-03-02T12:16:44;98928.66;;;7.31
81657;BMP280;71067;51.482;-0.580;2024-03-02T12:19:09;98933.00;;;7.45
81657;BMP280;71067;51.482;-0.580;2024-03-02T12:21:34;98932.41;;;7.50
81657;BMP280;71067;51.482;-0.580;2024-03-02T12:24:01;98929.56;;;7.59
81657;BMP280;71067;51.482;-0.580;2024-03-02T12:26:26;98932.38;;;7.64
81657;BMP280;71067;51.482;-0.580;2024-03-02T12:28:52;98923.94;;;7.71
81657;BMP280;71067;51.482;-0.580;2024-03-02T12:31:17;98908.22;;;7.65
81657;BMP280;71067;51.482;-0.580;2024-03-02T12:33:43;98924.41;;;7.81
81657;BMP280;71067;51.482;-0.580;2024-03-02T12:36:13;98904.34;;;7.70
81657;BMP280;71067;51.482;-0.580;2024-03-02T12:38:43;98936.63;;;7.93
81657;BMP280;71067;51.482;-0.580;2024-03-02T12:41:09;98928.09;;;7.93
81657;BMP280;71067;51.482;-0.580;2024-03-02T12:43:34;98935.13;;;8.05
81657;BMP280;71067;51.482;-0.580;2024-03-02T12:45:59;98933.16;;;8.07
81657;BMP280;71067;51.482;-0.580;2024-03-02T12:48:25;98931.97;;;8.03
81657;BMP280;71067;51.482;-0.580;2024-03-02T12:50:50;98937.59;;;8.13
81657;BMP280;71067;51.482;-0.580;2024-03-02T12:53:16;98956.66;;;8.19
81657;BMP280;71067;51.482;-0.580;2024-03-02T12:55:41;98956.72;;;8.25
81657;BMP280;71067;51.482;-0.580;2024-03-02T12:58:08;98957.91;;;8.29
81657;BMP280;71067;51.482;-0.580;2024-03-02T13:00:33;98949.53;;;8.21
81657;BMP280;71067;51.482;-0.580;2024-03-02T13:03:00;98965.81;;;8.28
81657;BMP280;71067;51.482;-0.580;2024-03-02T13:05:31;98975.78;;;8.31
81657;BMP280;71067;51.482;-0.580;2024-03-02T13:07:58;98964.25;;;8.27
81657;BMP280;71067;51.482;-0.580;2024-03-02T13:10:24;98973.38;;;8.29
81657;BMP280;71067;51.482;-0.580;2024-03-02T13:12:50;98984.06;;;8.26
81657;BMP280;71067;51.482;-0.580;2024-03-02T13:15:15;98960.81;;;8.20
81657;BMP280;71067;51.482;-0.580;2024-03-02T13:17:40;98982.94;;;8.35
81657;BMP280;71067;51.482;-0.580;2024-03-02T13:20:06;98975.03;;;8.37
81657;BMP280;71067;51.482;-0.580;2024-03-02T13:22:33;98974.81;;;8.38
81657;BMP280;71067;51.482;-0.580;2024-03-02T13:24:58;98991.75;;;8.47
81657;BMP280;71067;51.482;-0.580;2024-03-02T13:27:25;98973.41;;;8.36
81657;BMP280;71067;51.482;-0.580;2024-03-02T13:29:50;98972.44;;;8.37
81657;BMP280;71067;51.482;-0.580;2024-03-02T13:32:16;98997.31;;;8.51
81657;BMP280;71067;51.482;-0.580;2024-03-02T13:34:43;98996.56;;;8.51
81657;BMP280;71067;51.482;-0.580;2024-03-02T13:37:08;99002.13;;;8.54
81657;BMP280;71067;51.482;-0.580;2024-03-02T13:39:34;98975.81;;;8.37
81657;BMP280;71067;51.482;-0.580;2024-03-02T13:42:07;98974.91;;;8.45
81657;BMP280;71067;51.482;-0.580;2024-03-02T13:44:33;98996.34;;;8.52
81657;BMP280;71067;51.482;-0.580;2024-03-02T13:47:00;98996.56;;;8.57
81657;BMP280;71067;51.482;-0.580;2024-03-02T13:49:25;98981.94;;;8.64
81657;BMP280;71067;51.482;-0.580;2024-03-02T13:51:59;98993.28;;;8.63
81657;BMP280;71067;51.482;-0.580;2024-03-02T13:54:25;98989.63;;;8.58
81657;BMP280;71067;51.482;-0.580;2024-03-02T13:56:51;98983.91;;;8.56
81657;BMP280;71067;51.482;-0.580;2024-03-02T13:59:17;98993.88;;;8.65
81657;BMP280;71067;51.482;-0.580;2024-03-02T14:01:42;98985.19;;;8.73
81657;BMP280;71067;51.482;-0.580;2024-03-02T14:04:08;98993.75;;;8.80
81657;BMP280;71067;51.482;-0.580;2024-03-02T14:06:33;98989.38;;;8.80
81657;BMP280;71067;51.482;-0.580;2024-03-02T14:08:59;98983.25;;;8.81
81657;BMP280;71067;51.482;-0.580;2024-03-02T14:11:25;98992.41;;;8.90